createdAt,value
2018-11-07T00:00:22.039Z,100581.91
2018-11-07T00:02:51.683Z,100583.55
2018-11-07T00:05:21.318Z,100584.70
2018-11-07T00:07:50.884Z,100586.34
2018-11-07T00:10:20.410Z,100589.37
2018-11-07T00:12:49.966Z,100583.71
2018-11-07T00:15:19.548Z,100587.31
2018-11-07T00:17:49.126Z,100585.19
2018-11-07T00:20:18.657Z,100586.33
2018-11-07T00:22:48.241Z,100581.42
2018-11-07T00:25:17.742Z,100581.54
2018-11-07T00:27:47.310Z,100580.78
2018-11-07T00:30:16.838Z,100581.69
2018-11-07T00:32:46.422Z,100578.71
2018-11-07T00:35:16.006Z,100581.49
2018-11-07T00:37:45.559Z,100577.24
2018-11-07T00:40:15.125Z,100576.80
2018-11-07T00:42:44.684Z,100573.84
2018-11-07T00:45:14.433Z,100573.14
2018-11-07T00:47:43.986Z,100572.05
2018-11-07T00:50:16.215Z,100569.93
2018-11-07T00:52:45.989Z,100571.89
2018-11-07T00:55:16.265Z,100568.99
2018-11-07T00:57:45.843Z,100575.03
2018-11-07T01:00:18.325Z,100562.55
2018-11-07T01:02:48.815Z,100566.69
2018-11-07T01:05:18.360Z,100565.38
2018-11-07T01:07:48.414Z,100569.25
2018-11-07T01:10:17.967Z,100562.16
2018-11-07T01:12:47.512Z,100559.71
2018-11-07T01:15:17.058Z,100559.71
2018-11-07T01:17:46.574Z,100558.94
2018-11-07T01:20:16.092Z,100557.89
2018-11-07T01:22:45.731Z,100557.35
2018-11-07T01:25:15.302Z,100555.22
2018-11-07T01:27:44.834Z,100553.04
2018-11-07T01:30:14.956Z,100557.41
2018-11-07T01:32:44.463Z,100553.91
2018-11-07T01:35:13.999Z,100555.28
2018-11-07T01:37:43.555Z,100554.20
2018-11-07T01:40:14.343Z,100550.42
2018-11-07T01:42:44.608Z,100552.06
2018-11-07T01:45:14.512Z,100546.62
2018-11-07T01:47:44.069Z,100544.48
2018-11-07T01:50:14.241Z,100548.88
2018-11-07T01:52:43.759Z,100550.84
2018-11-07T01:55:13.346Z,100545.67
2018-11-07T01:57:42.838Z,100556.29
2018-11-07T02:00:12.986Z,100548.66
2018-11-07T02:02:43.794Z,100551.38
2018-11-07T02:05:14.119Z,100556.29
2018-11-07T02:07:43.959Z,100550.25
2018-11-07T02:10:13.490Z,100556.74
2018-11-07T02:12:43.069Z,100550.42
2018-11-07T02:15:12.621Z,100552.83
2018-11-07T02:17:42.138Z,100556.59
2018-11-07T02:20:12.474Z,100553.50
2018-11-07T02:22:42.390Z,100558.94
2018-11-07T02:25:11.947Z,100555.63
2018-11-07T02:27:41.839Z,100557.75
2018-11-07T02:30:13.870Z,100556.56
2018-11-07T02:32:43.413Z,100549.16
2018-11-07T02:35:12.986Z,100551.89
2018-11-07T02:37:42.574Z,100555.69
2018-11-07T02:40:12.106Z,100556.03
2018-11-07T02:42:41.651Z,100556.88
2018-11-07T02:45:11.212Z,100553.56
2018-11-07T02:47:40.798Z,100556.28
2018-11-07T02:50:11.159Z,100552.70
2018-11-07T02:52:40.880Z,100558.16
2018-11-07T02:55:10.391Z,100557.05
2018-11-07T02:57:39.929Z,100560.55
2018-11-07T03:00:11.699Z,100559.18
2018-11-07T03:02:41.356Z,100553.95
2018-11-07T03:05:11.114Z,100551.29
2018-11-07T03:07:41.143Z,100553.42
2018-11-07T03:10:12.168Z,100553.73
2018-11-07T03:12:42.139Z,100554.50
2018-11-07T03:15:11.727Z,100551.78
2018-11-07T03:17:41.226Z,100551.78
2018-11-07T03:20:12.318Z,100550.41
2018-11-07T03:22:42.016Z,100549.51
2018-11-07T03:25:11.577Z,100550.87
2018-11-07T03:27:41.135Z,100551.95
2018-11-07T03:30:11.121Z,100553.77
2018-11-07T03:32:40.632Z,100549.94
2018-11-07T03:35:15.284Z,100556.48
2018-11-07T03:37:44.933Z,100551.35
2018-11-07T03:40:14.476Z,100552.48
2018-11-07T03:42:44.196Z,100561.42
2018-11-07T03:45:13.740Z,100556.20
2018-11-07T03:47:43.520Z,100550.22
2018-11-07T03:50:13.251Z,100555.13
2018-11-07T03:52:42.810Z,100562.41
2018-11-07T03:55:12.402Z,100564.05
2018-11-07T03:57:41.968Z,100562.10
2018-11-07T04:00:11.708Z,100433.72
2018-11-07T04:02:41.579Z,100569.00
2018-11-07T04:05:12.154Z,100569.81
2018-11-07T04:07:42.582Z,100563.23
2018-11-07T04:10:12.148Z,100569.22
2018-11-07T04:12:41.710Z,100565.42
2018-11-07T04:15:11.300Z,100427.97
2018-11-07T04:17:40.903Z,100566.02
2018-11-07T04:20:10.759Z,100564.38
2018-11-07T04:22:40.619Z,100567.38
2018-11-07T04:25:10.738Z,100564.97
2018-11-07T04:27:40.349Z,100563.29
2018-11-07T04:30:11.605Z,100564.05
2018-11-07T04:32:41.499Z,100567.31
2018-11-07T04:35:12.184Z,100567.09
2018-11-07T04:37:42.376Z,100568.40
2018-11-07T04:40:12.866Z,100570.05
2018-11-07T04:42:42.750Z,100569.67
2018-11-07T04:45:12.318Z,100569.73
2018-11-07T04:47:41.856Z,100575.55
2018-11-07T04:50:12.186Z,100575.28
2018-11-07T04:52:41.704Z,100579.31
2018-11-07T04:55:11.270Z,100576.53
2018-11-07T04:57:40.776Z,100584.09
2018-11-07T05:00:11.765Z,100583.56
2018-11-07T05:02:42.129Z,100586.77
2018-11-07T05:05:11.917Z,100583.81
2018-11-07T05:07:41.450Z,100589.77
2018-11-07T05:10:11.852Z,100591.61
2018-11-07T05:12:41.478Z,100602.18
2018-11-07T05:15:11.388Z,100602.50
2018-11-07T05:17:40.965Z,100599.94
2018-11-07T05:20:11.386Z,100601.30
2018-11-07T05:22:41.036Z,100607.56
2018-11-07T05:25:11.430Z,100611.96
2018-11-07T05:27:41.550Z,100615.06
2018-11-07T05:30:11.838Z,100613.48
2018-11-07T05:32:41.688Z,100613.93
2018-11-07T05:35:11.446Z,100621.81
2018-11-07T05:37:41.053Z,100620.73
2018-11-07T05:40:10.584Z,100624.05
2018-11-07T05:42:40.208Z,100630.32
2018-11-07T05:45:09.816Z,100630.86
2018-11-07T05:47:39.675Z,100630.86
2018-11-07T05:50:10.028Z,100638.58
2018-11-07T05:52:40.055Z,100643.86
2018-11-07T05:55:10.297Z,100638.86
2018-11-07T05:57:40.349Z,100646.14
2018-11-07T06:00:12.951Z,100647.95
2018-11-07T06:02:42.583Z,100644.19
2018-11-07T06:05:12.751Z,100654.16
2018-11-07T06:07:42.335Z,100649.53
2018-11-07T06:10:13.031Z,100652.03
2018-11-07T06:12:42.848Z,100579.38
2018-11-07T06:15:14.854Z,100657.70
2018-11-07T06:17:44.523Z,100659.47
2018-11-07T06:20:14.203Z,100662.79
2018-11-07T06:22:43.788Z,100666.40
2018-11-07T06:25:14.266Z,100666.72
2018-11-07T06:27:43.854Z,100670.04
2018-11-07T06:30:13.776Z,100668.96
2018-11-07T06:32:43.628Z,100670.33
2018-11-07T06:35:13.436Z,100667.31
2018-11-07T06:37:42.954Z,100668.74
2018-11-07T06:40:13.740Z,100672.25
2018-11-07T06:42:43.518Z,100668.55
2018-11-07T06:45:13.139Z,100670.06
2018-11-07T06:47:42.727Z,100671.87
2018-11-07T06:50:15.327Z,100669.69
2018-11-07T06:52:45.144Z,100665.22
2018-11-07T06:55:14.777Z,100667.41
2018-11-07T06:57:44.428Z,100670.19
2018-11-07T07:00:16.185Z,100672.47
2018-11-07T07:02:46.819Z,100671.46
2018-11-07T07:05:16.670Z,100668.52
2018-11-07T07:07:46.219Z,100670.55
2018-11-07T07:10:17.187Z,100674.25
2018-11-07T07:12:46.762Z,100674.09
2018-11-07T07:17:42.328Z,100678.58
2018-11-07T07:20:16.088Z,100676.83
2018-11-07T07:22:46.313Z,100675.79
2018-11-07T07:25:16.008Z,100668.44
2018-11-07T07:27:46.261Z,100672.36
2018-11-07T07:30:18.178Z,100681.25
2018-11-07T07:32:48.136Z,100669.75
2018-11-07T07:35:17.869Z,100674.86
2018-11-07T07:37:47.464Z,100676.02
2018-11-07T07:40:17.608Z,100680.80
2018-11-07T07:42:47.545Z,100680.97
2018-11-07T07:45:18.291Z,100677.53
2018-11-07T07:47:47.931Z,100682.87
2018-11-07T07:50:18.646Z,100685.65
2018-11-07T07:52:48.430Z,100679.31
2018-11-07T07:55:17.950Z,100681.45
2018-11-07T07:57:47.502Z,100681.38
2018-11-07T08:00:19.410Z,100680.61
2018-11-07T08:02:50.891Z,100679.30
2018-11-07T08:05:20.607Z,100676.54
2018-11-07T08:07:50.386Z,100681.69
2018-11-07T08:10:21.144Z,100677.87
2018-11-07T08:12:51.286Z,100681.69
2018-11-07T08:15:20.897Z,100678.78
2018-11-07T08:17:50.472Z,100677.52
2018-11-07T08:20:20.195Z,100683.92
2018-11-07T08:22:50.012Z,100679.79
2018-11-07T08:25:19.643Z,100678.64
2018-11-07T08:27:49.211Z,100673.16
2018-11-07T08:30:20.181Z,100672.05
2018-11-07T08:32:49.789Z,100671.62
2018-11-07T08:35:19.355Z,100671.04
2018-11-07T08:37:48.921Z,100671.81
2018-11-07T08:40:19.919Z,100675.83
2018-11-07T08:42:49.712Z,100667.67
2018-11-07T08:45:20.108Z,100667.47
2018-11-07T08:47:49.692Z,100669.50
2018-11-07T08:50:20.508Z,100663.94
2018-11-07T08:52:50.335Z,100666.64
2018-11-07T08:55:21.140Z,100663.22
2018-11-07T08:57:50.653Z,100658.50
2018-11-07T09:00:21.403Z,100657.09
2018-11-07T09:02:50.970Z,100654.16
2018-11-07T09:05:21.384Z,100652.00
2018-11-07T09:07:51.013Z,100648.31
2018-11-07T09:10:21.975Z,100645.17
2018-11-07T09:12:51.528Z,100646.45
2018-11-07T09:15:22.306Z,100638.43
2018-11-07T09:17:51.942Z,100635.02
2018-11-07T09:20:22.725Z,100634.86
2018-11-07T09:22:52.406Z,100634.18
2018-11-07T09:25:21.917Z,100623.03
2018-11-07T09:27:51.470Z,100620.66
2018-11-07T09:30:22.170Z,100621.00
2018-11-07T09:32:51.766Z,100619.41
2018-11-07T09:35:21.777Z,100620.23
2018-11-07T09:37:51.386Z,100612.81
2018-11-07T09:40:21.746Z,100609.27
2018-11-07T09:42:51.596Z,100606.78
2018-11-07T09:45:22.339Z,100610.06
2018-11-07T09:47:52.275Z,100609.17
2018-11-07T09:50:21.867Z,100604.89
2018-11-07T09:52:51.460Z,100600.54
2018-11-07T09:55:21.656Z,100600.30
2018-11-07T09:57:51.165Z,100594.05
2018-11-07T10:00:21.699Z,100594.61
2018-11-07T10:02:51.287Z,100596.86
2018-11-07T10:05:21.616Z,100596.80
2018-11-07T10:07:51.194Z,100584.52
2018-11-07T10:10:21.883Z,100587.29
2018-11-07T10:12:51.600Z,100575.77
2018-11-07T10:15:21.572Z,100580.42
2018-11-07T10:17:51.142Z,100577.70
2018-11-07T10:20:22.847Z,100577.70
2018-11-07T10:22:52.492Z,100570.81
2018-11-07T10:25:22.032Z,100568.09
2018-11-07T10:27:51.917Z,100570.58
2018-11-07T10:30:21.789Z,100563.72
2018-11-07T10:32:51.771Z,100551.89
2018-11-07T10:35:21.361Z,100551.66
2018-11-07T10:37:51.045Z,100550.91
2018-11-07T10:40:24.580Z,100550.66
2018-11-07T10:42:54.155Z,100543.01
2018-11-07T10:45:23.768Z,100550.74
2018-11-07T10:47:53.361Z,100546.12
2018-11-07T10:50:23.070Z,100540.38
2018-11-07T10:52:52.720Z,100532.65
2018-11-07T10:55:22.324Z,100533.77
2018-11-07T10:57:51.930Z,100534.34
2018-11-07T11:00:26.601Z,100529.98
2018-11-07T11:03:01.319Z,100527.19
2018-11-07T11:05:30.850Z,100528.59
2018-11-07T11:08:00.476Z,100523.37
2018-11-07T11:10:30.060Z,100517.88
2018-11-07T11:12:59.561Z,100514.52
2018-11-07T11:15:29.139Z,100511.77
2018-11-07T11:17:58.898Z,100509.89
2018-11-07T11:20:28.453Z,100509.64
2018-11-07T11:22:58.033Z,100502.25
2018-11-07T11:25:27.576Z,100499.25
2018-11-07T11:27:57.144Z,100496.02
2018-11-07T11:30:26.696Z,100491.13
2018-11-07T11:32:56.252Z,100494.14
2018-11-07T11:35:25.788Z,100487.30
2018-11-07T11:37:55.429Z,100493.09
2018-11-07T11:40:25.068Z,100483.22
2018-11-07T11:42:54.636Z,100491.45
2018-11-07T11:45:24.205Z,100487.05
2018-11-07T11:47:53.757Z,100479.36
2018-11-07T11:50:23.381Z,100480.19
2018-11-07T11:52:53.175Z,100477.70
2018-11-07T11:55:22.723Z,100474.44
2018-11-07T11:57:52.349Z,100474.14
2018-11-07T12:00:22.333Z,100466.98
2018-11-07T12:02:51.916Z,100469.73
2018-11-07T12:05:21.484Z,100465.88
2018-11-07T12:07:51.019Z,100466.69
2018-11-07T12:10:21.887Z,100452.97
2018-11-07T12:12:52.687Z,100455.71
2018-11-07T12:15:23.545Z,100454.60
2018-11-07T12:17:53.534Z,100451.83
2018-11-07T12:20:23.150Z,100447.37
2018-11-07T12:22:52.691Z,100446.55
2018-11-07T12:25:22.779Z,100437.73
2018-11-07T12:27:52.339Z,100438.54
2018-11-07T12:30:23.778Z,100441.79
2018-11-07T12:32:54.464Z,100436.00
2018-11-07T12:35:24.313Z,100432.95
2018-11-07T12:37:53.943Z,100432.95
2018-11-07T12:40:23.543Z,100431.83
2018-11-07T12:42:53.135Z,100438.13
2018-11-07T12:45:22.682Z,100437.55
2018-11-07T12:47:52.384Z,100439.73
2018-11-07T12:50:23.247Z,100435.30
2018-11-07T12:52:53.702Z,100433.64
2018-11-07T12:55:23.534Z,100346.92
2018-11-07T12:57:53.173Z,100440.47
2018-11-07T13:00:23.951Z,100432.50
2018-11-07T13:02:53.688Z,100432.75
2018-11-07T13:05:24.028Z,100432.09
2018-11-07T13:07:54.540Z,100435.94
2018-11-07T13:10:24.462Z,100435.08
2018-11-07T13:12:54.240Z,100435.37
2018-11-07T13:15:23.837Z,100436.16
2018-11-07T13:17:53.673Z,100435.55
2018-11-07T13:20:29.912Z,100431.41
2018-11-07T13:22:59.551Z,100429.17
2018-11-07T13:25:29.089Z,100429.72
2018-11-07T13:27:58.792Z,100431.34
2018-11-07T13:30:28.327Z,100434.86
2018-11-07T13:32:57.903Z,100435.67
2018-11-07T13:59:58.713Z,100430.45
2018-11-07T14:02:28.376Z,100295.81
2018-11-07T14:04:58.086Z,100435.84
2018-11-07T14:07:27.757Z,100426.80
2018-11-07T14:09:57.822Z,100425.98
2018-11-07T14:12:27.384Z,100425.66
2018-11-07T14:14:57.044Z,100421.54
2018-11-07T14:17:26.683Z,100422.28
2018-11-07T14:19:56.252Z,100425.00
2018-11-07T14:22:25.831Z,100424.72
2018-11-07T14:24:55.537Z,100423.54
2018-11-07T14:27:25.681Z,100424.59
2018-11-07T14:29:56.328Z,100425.63
2018-11-07T14:32:26.620Z,100428.89
2018-11-07T14:34:56.425Z,100425.02
2018-11-07T14:37:26.176Z,100424.67
2018-11-07T14:39:56.029Z,100424.89
2018-11-07T14:42:25.678Z,100426.48
2018-11-07T14:44:56.726Z,100426.95
2018-11-07T14:47:26.343Z,100422.80
2018-11-07T14:49:56.001Z,100422.15
2018-11-07T14:52:25.586Z,100424.28
2018-11-07T14:54:55.157Z,100426.97
2018-11-07T14:57:24.694Z,100429.03
2018-11-07T14:59:54.342Z,100428.41
2018-11-07T15:02:23.981Z,100431.84
2018-11-07T15:04:53.624Z,100429.56
2018-11-07T15:07:23.191Z,100432.99
2018-11-07T15:09:52.842Z,100426.03
2018-11-07T15:12:22.370Z,100425.61
2018-11-07T15:14:52.010Z,100427.69
2018-11-07T15:17:21.580Z,100425.65
2018-11-07T15:19:51.160Z,100430.42
2018-11-07T15:22:20.758Z,100432.74
2018-11-07T15:24:50.476Z,100436.70
2018-11-07T15:27:20.049Z,100442.55
2018-11-07T15:29:49.678Z,100446.50
2018-11-07T15:32:20.567Z,100441.16
2018-11-07T15:34:50.141Z,100445.41
2018-11-07T15:37:19.739Z,100452.89
2018-11-07T15:39:49.626Z,100320.59
2018-11-07T15:42:19.159Z,100451.78
2018-11-07T15:44:48.774Z,100453.80
2018-11-07T15:47:18.386Z,100450.41
2018-11-07T15:49:53.018Z,100457.87
2018-11-07T15:52:22.613Z,100456.34
2018-11-07T15:54:52.167Z,100447.99
2018-11-07T15:57:21.728Z,100454.40
2018-11-07T15:59:51.337Z,100453.17
2018-11-07T16:02:20.851Z,100451.70
2018-11-07T16:04:50.432Z,100460.30
2018-11-07T16:07:19.996Z,100456.56
2018-11-07T16:09:49.555Z,100462.96
2018-11-07T16:12:19.142Z,100464.45
2018-11-07T16:14:48.711Z,100456.94
2018-11-07T16:17:18.241Z,100461.43
2018-11-07T16:19:47.785Z,100463.73
2018-11-07T16:22:17.292Z,100467.39
2018-11-07T16:24:46.907Z,100459.62
2018-11-07T16:27:16.483Z,100463.05
2018-11-07T16:29:46.110Z,100464.30
2018-11-07T16:32:16.324Z,100466.38
2018-11-07T16:34:45.867Z,100471.98
2018-11-07T16:37:15.367Z,100473.73
2018-11-07T16:39:44.935Z,100473.36
2018-11-07T16:42:14.484Z,100474.89
2018-11-07T16:44:44.036Z,100471.79
2018-11-07T16:47:13.537Z,100475.49
2018-11-07T16:49:43.083Z,100467.72
2018-11-07T16:52:12.648Z,100475.22
2018-11-07T16:54:42.147Z,100476.52
2018-11-07T16:57:11.689Z,100470.64
2018-11-07T16:59:41.231Z,100472.16
2018-11-07T17:02:10.814Z,100476.41
2018-11-07T17:04:40.460Z,100476.02
2018-11-07T17:07:10.010Z,100471.28
2018-11-07T17:09:39.518Z,100472.80
2018-11-07T17:12:09.023Z,100474.31
2018-11-07T17:14:38.784Z,100475.83
2018-11-07T17:17:08.283Z,100473.27
2018-11-07T17:19:37.811Z,100471.78
2018-11-07T17:22:07.359Z,100473.58
2018-11-07T17:24:37.114Z,100473.22
2018-11-07T17:27:06.607Z,100470.66
2018-11-07T17:29:36.142Z,100468.59
2018-11-07T17:32:05.904Z,100475.10
2018-11-07T17:34:35.395Z,100471.17
2018-11-07T17:37:05.167Z,100476.22
2018-11-07T17:39:34.716Z,100475.62
2018-11-07T17:42:04.228Z,100475.87
2018-11-07T17:44:33.874Z,100473.91
2018-11-07T17:47:03.487Z,100470.59
2018-11-07T17:49:32.999Z,100476.30
2018-11-07T17:52:02.575Z,100473.30
2018-11-07T17:54:32.071Z,100476.09
2018-11-07T17:57:01.622Z,100471.05
2018-11-07T17:59:31.127Z,100473.61
2018-11-07T18:02:00.691Z,100473.20
2018-11-07T18:04:30.224Z,100469.52
2018-11-07T18:06:59.893Z,100468.30
2018-11-07T18:09:29.429Z,100464.60
2018-11-07T18:11:58.976Z,100471.30
2018-11-07T18:14:28.507Z,100479.62
2018-11-07T18:16:58.004Z,100473.93
2018-11-07T18:19:27.602Z,100478.01
2018-11-07T18:21:57.093Z,100481.33
2018-11-07T18:24:26.623Z,100480.35
2018-11-07T18:26:56.208Z,100478.02
2018-11-07T18:29:25.736Z,100480.89
2018-11-07T18:31:55.292Z,100481.55
2018-11-07T18:34:24.796Z,100482.94
2018-11-07T18:36:54.339Z,100486.55
2018-11-07T18:39:23.851Z,100485.34
2018-11-07T18:41:53.396Z,100482.91
2018-11-07T18:44:23.007Z,100494.39
2018-11-07T18:46:52.536Z,100490.91
2018-11-07T18:49:22.131Z,100499.20
2018-11-07T18:51:51.654Z,100496.31
2018-11-07T18:54:21.232Z,100499.95
2018-11-07T18:56:50.765Z,100493.22
2018-11-07T18:59:20.346Z,100499.58
2018-11-07T19:01:49.948Z,100500.08
2018-11-07T19:04:19.588Z,100497.36
2018-11-07T19:06:49.293Z,100497.67
2018-11-07T19:09:18.819Z,100497.20
2018-11-07T19:11:48.437Z,100502.41
2018-11-07T19:14:18.042Z,100502.48
2018-11-07T19:16:47.673Z,100509.12
2018-11-07T19:19:17.284Z,100506.17
2018-11-07T19:21:46.839Z,100505.36
2018-11-07T19:24:16.407Z,100509.28
2018-11-07T19:26:46.090Z,100511.84
2018-11-07T19:29:15.567Z,100510.54
2018-11-07T19:31:45.164Z,100517.72
2018-11-07T19:34:14.687Z,100516.83
2018-11-07T19:36:44.296Z,100506.84
2018-11-07T19:39:14.059Z,100510.78
2018-11-07T19:41:43.567Z,100509.80
2018-11-07T19:44:13.136Z,100517.48
2018-11-07T19:46:42.721Z,100514.31
2018-11-07T19:49:12.286Z,100512.70
2018-11-07T19:51:41.908Z,100517.98
2018-11-07T19:54:11.408Z,100514.21
2018-11-07T19:56:41.027Z,100517.53
2018-11-07T19:59:10.588Z,100522.21
2018-11-07T20:01:40.118Z,100527.94
2018-11-07T20:04:09.740Z,100522.27
2018-11-07T20:06:39.258Z,100530.49
2018-11-07T20:09:10.070Z,100531.84
2018-11-07T20:11:39.660Z,100528.31
2018-11-07T20:14:09.215Z,100535.34
2018-11-07T20:16:38.830Z,100538.06
2018-11-07T20:19:08.350Z,100531.19
2018-11-07T20:21:37.853Z,100536.04
2018-11-07T20:24:07.406Z,100531.95
2018-11-07T20:26:36.922Z,100533.03
2018-11-07T20:29:06.589Z,100530.53
2018-11-07T20:31:36.108Z,100529.88
2018-11-07T20:34:05.787Z,100529.50
2018-11-07T20:36:35.303Z,100525.59
2018-11-07T20:39:06.764Z,100525.30
2018-11-07T20:41:36.371Z,100527.17
2018-11-07T20:44:05.999Z,100524.61
2018-11-07T20:46:35.580Z,100520.15
2018-11-07T20:49:05.548Z,100520.22
2018-11-07T20:51:35.099Z,100514.44
2018-11-07T20:54:04.728Z,100512.85
2018-11-07T20:56:34.329Z,100516.33
2018-11-07T20:59:03.850Z,100515.73
2018-11-07T21:01:33.403Z,100514.09
2018-11-07T21:04:02.978Z,100510.77
2018-11-07T21:06:32.529Z,100512.34
2018-11-07T21:09:02.058Z,100513.10
2018-11-07T21:11:31.587Z,100513.92
2018-11-07T21:14:01.129Z,100513.92
2018-11-07T21:16:30.690Z,100517.19
2018-11-07T21:19:00.252Z,100509.78
2018-11-07T21:21:29.788Z,100513.73
2018-11-07T21:23:59.319Z,100512.38
2018-11-07T21:26:28.825Z,100510.63
2018-11-07T21:28:58.421Z,100512.43
2018-11-07T21:31:28.008Z,100503.33
2018-11-07T21:33:57.575Z,100507.55
2018-11-07T21:36:27.110Z,100499.55
2018-11-07T21:38:56.668Z,100505.14
2018-11-07T21:41:26.235Z,100509.97
2018-11-07T21:43:55.855Z,100512.63
2018-11-07T21:46:25.437Z,100509.05
2018-11-07T21:48:55.030Z,100514.80
2018-11-07T21:51:24.558Z,100508.61
2018-11-07T21:53:54.147Z,100511.87
2018-11-07T21:56:23.710Z,100517.52
2018-11-07T21:58:53.294Z,100514.87
2018-11-07T22:01:22.835Z,100516.02
2018-11-07T22:03:52.367Z,100514.33
2018-11-07T22:06:21.921Z,100516.83
2018-11-07T22:08:51.443Z,100515.25
2018-11-07T22:11:20.969Z,100517.50
2018-11-07T22:13:50.514Z,100517.06
2018-11-07T22:16:20.112Z,100517.12
2018-11-07T22:18:49.602Z,100513.66
2018-11-07T22:21:19.167Z,100513.94
2018-11-07T22:23:48.702Z,100503.39
2018-11-07T22:26:18.252Z,100366.19
2018-11-07T22:28:47.781Z,100506.02
2018-11-07T22:31:17.332Z,100504.72
2018-11-07T22:33:46.866Z,100504.22
2018-11-07T22:36:16.395Z,100501.02
2018-11-07T22:38:45.947Z,100511.75
2018-11-07T22:41:15.506Z,100498.75
2018-11-07T22:43:45.018Z,100504.79
2018-11-07T22:46:14.727Z,100495.05
2018-11-07T22:48:44.234Z,100492.94
2018-11-07T22:51:13.808Z,100493.69
2018-11-07T22:53:43.298Z,100496.41
2018-11-07T22:56:12.842Z,100498.59
2018-11-07T22:58:42.353Z,100501.31
2018-11-07T23:01:16.775Z,100493.16
2018-11-07T23:03:46.885Z,100487.72
2018-11-07T23:06:16.502Z,100482.88
2018-11-07T23:08:46.068Z,100483.48
2018-11-07T23:11:15.627Z,100482.41
2018-11-07T23:13:45.132Z,100478.64
2018-11-07T23:16:14.767Z,100487.08
2018-11-07T23:18:44.268Z,100481.58
2018-11-07T23:21:13.822Z,100477.98
2018-11-07T23:23:43.395Z,100478.20
2018-11-07T23:26:12.929Z,100476.53
2018-11-07T23:28:42.461Z,100473.20
2018-11-07T23:31:12.000Z,100479.72
2018-11-07T23:33:41.550Z,100480.48
2018-11-07T23:36:11.093Z,100477.98
2018-11-07T23:38:40.587Z,100476.84
2018-11-07T23:41:10.191Z,100481.69
2018-11-07T23:43:39.695Z,100477.31
2018-11-07T23:46:09.252Z,100479.75
2018-11-07T23:48:38.767Z,100476.72
2018-11-07T23:51:08.327Z,100484.11
2018-11-07T23:53:37.895Z,100476.50
2018-11-07T23:56:07.452Z,100484.11
2018-11-07T23:58:36.947Z,100477.03
